Time;durP1;ratioP1;P1;durP2;ratioP2;P2;SDS_P1;SDS_P2;PMS_P1;PMS_P2;Temp;Humidity;BMP_temperature;BMP_pressure;BME280_temperature;BME280_humidity;BME280_pressure;Samples;Min_cycle;Max_cycle;Signal;HPM_P1;HPM_P2
2021/06/29 00:00:55;;;;;;;;;;;;;;;;;;1446057;41;7045;-67
2021/06/29 00:01:57;;;;;;;;;;;;;;;;;;1447170;41;7012;-67
2021/06/29 00:03:02;;;;;;;;;;;;;;;;;;1447431;41;7004;-66
2021/06/29 00:04:04;;;;;;;;;;;;;;;;;;1446975;41;7252;-66
2021/06/29 00:05:07;;;;;;;;;;;;;;;;;;1447093;41;7938;-66
2021/06/29 00:06:09;;;;;;;;;;;;;;;;;;1446469;41;6984;-67
2021/06/29 00:07:12;;;;;;;;;;;;;;;;;;1446517;41;7031;-67
2021/06/29 00:08:14;;;;;;;;;;;;;;;;;;1446790;41;7913;-66
2021/06/29 00:09:16;;;;;;;;;;;;;;;;;;1446813;41;7004;-65
2021/06/29 00:10:19;;;;;;;;;;;;;;;;;;1446919;41;7056;-65
2021/06/29 00:11:22;;;;;;;;;;;;;;;;;;1446867;41;7007;-65
2021/06/29 00:12:25;;;;;;;;;;;;;;;;;;1446432;41;7032;-67
2021/06/29 00:13:27;;;;;;;;;;;;;;;;;;1446289;41;7004;-66
2021/06/29 00:14:29;;;;;;;;;;;;;;;;;;1446537;41;7036;-65
2021/06/29 00:15:32;;;;;;;;;;;;;;;;;;1447084;41;7004;-64
2021/06/29 00:16:35;;;;;;;;;;;;;;;;;;1449327;41;7000;-65
2021/06/29 00:17:37;;;;;;;;;;;;;;;;;;1450253;41;7040;-65
2021/06/29 00:18:40;;;;;;;;;;;;;;;;;;1449886;41;7009;-67
2021/06/29 00:19:43;;;;;;;;;;;;;;;;;;1449691;41;7000;-65
2021/06/29 00:20:46;;;;;;;;;;;;;;;;;;1444147;41;7063;-66
2021/06/29 00:21:49;;;;;;;;;;;;;;;;;;1445066;41;7036;-65
2021/06/29 00:22:52;;;;;;;;;;;;;;;;;;1449681;41;7032;-64
2021/06/29 00:23:54;;;;;;;;;;;;;;;;;;1448755;41;7012;-66
2021/06/29 00:24:57;;;;;;;;;;;;;;;;;;1449542;41;7040;-66
2021/06/29 00:25:59;;;;;;;;;;;;;;;;;;1450020;41;7004;-66
2021/06/29 00:27:01;;;;;;;;;;;;;;;;;;1450370;41;7004;-65
2021/06/29 00:28:04;;;;;;;;;;;;;;;;;;1450292;41;7024;-64
2021/06/29 00:29:06;;;;;;;;;;;;;;;;;;1449568;41;7005;-66
2021/06/29 00:30:09;;;;;;;;;;;;;;;;;;1449182;41;6988;-66
2021/06/29 00:31:12;;;;;;;;;;;;;;;;;;1449841;41;7232;-66
2021/06/29 00:32:15;;;;;;;;;;;;;;;;;;1449669;41;7017;-66
2021/06/29 00:33:17;;;;;;;;;;;;;;;;;;1450201;41;7116;-65
2021/06/29 00:34:20;;;;;;;;;;;;;;;;;;1449656;41;7004;-65
2021/06/29 00:35:22;;;;;;;;;;;;;;;;;;1449706;41;7004;-66
2021/06/29 00:36:25;;;;;;;;;;;;;;;;;;1450365;41;7008;-66
2021/06/29 00:37:27;;;;;;;;;;;;;;;;;;1450065;41;7193;-65
2021/06/29 00:38:29;;;;;;;;;;;;;;;;;;1449689;41;7897;-66
2021/06/29 00:39:32;;;;;;;;;;;;;;;;;;1449219;41;8027;-66
2021/06/29 00:40:34;;;;;;;;;;;;;;;;;;1450044;41;7045;-67
2021/06/29 00:41:37;;;;;;;;;;;;;;;;;;1450335;41;7032;-66
2021/06/29 00:42:40;;;;;;;;;;;;;;;;;;1450531;41;7908;-66
2021/06/29 00:43:50;;;;;;;;;;;;;;;;;;1450729;41;7047;-67
2021/06/29 00:44:52;;;;;;;;;;;;;;;;;;1450139;41;7013;-66
2021/06/29 00:45:55;;;;;;;;;;;;;;;;;;1449902;41;7001;-66
2021/06/29 00:46:58;;;;;;;;;;;;;;;;;;1450441;41;7049;-65
2021/06/29 00:48:00;;;;;;;;;;;;;;;;;;1450380;41;7008;-67
2021/06/29 00:49:02;;;;;;;;;;;;;;;;;;1450672;41;7214;-66
2021/06/29 00:50:06;;;;;;;;;;;;;;;;;;1449922;41;7045;-66
2021/06/29 00:51:11;;;;;;;;;;;;;;;;;;1450013;41;7000;-65
2021/06/29 00:52:15;;;;;;;;;;;;;;;;;;1449455;40;7017;-65
2021/06/29 00:53:18;;;;;;;;;;;;;;;;;;1450699;41;7225;-65
2021/06/29 00:54:20;;;;;;;;;;;;;;;;;;1450700;41;6996;-66
2021/06/29 00:55:23;;;;;;;;;;;;;;;;;;1450943;41;7040;-67
2021/06/29 00:56:25;;;;;;;;;;;;;;;;;;1450517;41;7185;-66
2021/06/29 00:57:28;;;;;;;;;;;;;;;;;;1450718;41;7049;-66
2021/06/29 00:58:30;;;;;;;;;;;;;;;;;;1450656;41;7945;-65
2021/06/29 00:59:34;;;;;;;;;;;;;;;;;;1450844;41;7008;-66
2021/06/29 01:00:41;;;;;;;;;;;;;;;;;;1450680;41;7000;-65
2021/06/29 01:01:44;;;;;;;;;;;;;;;;;;1450758;41;7001;-66
2021/06/29 01:02:47;;;;;;;;;;;;;;;;;;1451091;41;7008;-66
2021/06/29 01:03:49;;;;;;;;;;;;;;;;;;1451226;41;7044;-67
2021/06/29 01:04:51;;;;;;;;;;;;;;;;;;1451088;41;7052;-65
2021/06/29 01:05:54;;;;;;;;;;;;;;;;;;1450684;41;7225;-65
2021/06/29 01:06:56;;;;;;;;;;;;;;;;;;1450565;41;7048;-66
2021/06/29 01:07:59;;;;;;;;;;;;;;;;;;1450994;41;7008;-66
2021/06/29 01:09:01;;;;;;;;;;;;;;;;;;1451065;41;7017;-65
2021/06/29 01:10:05;;;;;;;;;;;;;;;;;;1450308;41;7032;-66
2021/06/29 01:11:08;;;;;;;;;;;;;;;;;;1450837;41;7119;-65
2021/06/29 01:12:11;;;;;;;;;;;;;;;;;;1450998;41;7953;-65
2021/06/29 01:13:26;;;;;;;;;;;;;;;;;;1450685;41;7001;-67
2021/06/29 01:14:29;;;;;;;;;;;;;;;;;;1450917;41;7013;-65
2021/06/29 01:15:31;;;;;;;;;;;;;;;;;;1451004;41;7000;-66
2021/06/29 01:16:33;;;;;;;;;;;;;;;;;;1451148;41;7004;-66
2021/06/29 01:17:36;;;;;;;;;;;;;;;;;;1451003;41;7008;-65
2021/06/29 01:18:41;;;;;;;;;;;;;;;;;;1450879;41;7039;-66
2021/06/29 01:19:45;;;;;;;;;;;;;;;;;;1450511;41;7184;-65
2021/06/29 01:20:48;;;;;;;;;;;;;;;;;;1450411;41;7020;-65
2021/06/29 01:21:52;;;;;;;;;;;;;;;;;;1450660;41;7036;-67
2021/06/29 01:23:04;;;;;;;;;;;;;;;;;;1450465;41;7964;-66
2021/06/29 01:24:11;;;;;;;;;;;;;;;;;;1450291;41;7001;-66
2021/06/29 01:25:13;;;;;;;;;;;;;;;;;;1447936;41;7195;-64
2021/06/29 01:29:03;;;;;;;;;;;;;;;;;;1446770;41;7059;-65
2021/06/29 01:31:09;;;;;;;;;;;;;;;;;;1450280;41;7004;-66
2021/06/29 01:32:16;;;;;;;;;;;;;;;;;;1450308;41;7017;-66
2021/06/29 01:33:19;;;;;;;;;;;;;;;;;;1447024;41;7000;-66
2021/06/29 01:34:21;;;;;;;;;;;;;;;;;;1450291;41;7035;-64
2021/06/29 01:35:24;;;;;;;;;;;;;;;;;;1450602;41;7008;-66
2021/06/29 01:36:28;;;;;;;;;;;;;;;;;;1450876;41;7004;-66
2021/06/29 01:37:30;;;;;;;;;;;;;;;;;;1450760;41;7031;-67
2021/06/29 01:38:33;;;;;;;;;;;;;;;;;;1448400;41;7004;-66
2021/06/29 01:39:36;;;;;;;;;;;;;;;;;;1446962;41;7004;-66
2021/06/29 01:40:39;;;;;;;;;;;;;;;;;;1446509;41;7017;-64
2021/06/29 01:41:41;;;;;;;;;;;;;;;;;;1446863;41;7181;-65
2021/06/29 01:42:48;;;;;;;;;;;;;;;;;;1446984;41;7004;-66
2021/06/29 01:44:12;;;;;;;;;;;;;;;;;;1446863;41;7040;-65
2021/06/29 01:45:14;;;;;;;;;;;;;;;;;;1450176;41;7936;-66
2021/06/29 01:46:18;;;;;;;;;;;;;;;;;;1447959;41;7045;-67
2021/06/29 01:47:56;;;;;;;;;;;;;;;;;;1450293;41;7029;-65
2021/06/29 01:48:50;;;;;;;;;;;;;;;;;;1449637;41;7014;-66
2021/06/29 01:49:53;;;;;;;;;;;;;;;;;;1450817;41;8078;-66
2021/06/29 01:50:56;;;;;;;;;;;;;;;;;;1449027;41;7124;-67
2021/06/29 01:51:58;;;;;;;;;;;;;;;;;;1450472;41;7004;-66
2021/06/29 01:53:01;;;;;;;;;;;;;;;;;;1446417;41;7035;-66
2021/06/29 01:54:03;;;;;;;;;;;;;;;;;;1446341;41;7000;-67
2021/06/29 01:55:06;;;;;;;;;;;;;;;;;;1450404;41;7017;-67
2021/06/29 01:56:14;;;;;;;;;;;;;;;;;;1450761;41;7008;-65
2021/06/29 01:57:18;;;;;;;;;;;;;;;;;;1450420;41;7004;-64
2021/06/29 01:58:24;;;;;;;;;;;;;;;;;;1450765;41;7267;-67
2021/06/29 01:59:26;;;;;;;;;;;;;;;;;;1450442;41;7228;-66
2021/06/29 02:00:29;;;;;;;;;;;;;;;;;;1450788;41;7925;-65
2021/06/29 02:01:31;;;;;;;;;;;;;;;;;;1450766;41;7060;-65
2021/06/29 02:02:35;;;;;;;;;;;;;;;;;;1451135;41;7035;-65
2021/06/29 02:03:37;;;;;;;;;;;;;;;;;;1450520;40;7005;-65
2021/06/29 02:04:40;;;;;;;;;;;;;;;;;;1450196;41;7025;-66
2021/06/29 02:05:43;;;;;;;;;;;;;;;;;;1450283;41;7012;-66
2021/06/29 02:06:45;;;;;;;;;;;;;;;;;;1448946;41;7008;-66
2021/06/29 02:07:47;;;;;;;;;;;;;;;;;;1446832;41;7045;-65
2021/06/29 02:08:50;;;;;;;;;;;;;;;;;;1447307;41;7008;-66
2021/06/29 02:09:52;;;;;;;;;;;;;;;;;;1447640;41;7035;-66
2021/06/29 02:10:55;;;;;;;;;;;;;;;;;;1450742;41;7957;-65
2021/06/29 02:11:57;;;;;;;;;;;;;;;;;;1450603;41;7008;-66
2021/06/29 02:13:01;;;;;;;;;;;;;;;;;;1450733;41;7008;-65
2021/06/29 02:14:04;;;;;;;;;;;;;;;;;;1450297;41;7012;-64
2021/06/29 02:15:06;;;;;;;;;;;;;;;;;;1447847;41;7012;-65
2021/06/29 02:16:09;;;;;;;;;;;;;;;;;;1450703;41;7013;-66
2021/06/29 02:17:11;;;;;;;;;;;;;;;;;;1447571;41;7048;-65
2021/06/29 02:18:14;;;;;;;;;;;;;;;;;;1446998;41;7000;-65
2021/06/29 02:19:16;;;;;;;;;;;;;;;;;;1448324;41;7000;-66
2021/06/29 02:20:19;;;;;;;;;;;;;;;;;;1450223;41;7009;-66
2021/06/29 02:21:21;;;;;;;;;;;;;;;;;;1450367;41;7039;-66
2021/06/29 02:22:24;;;;;;;;;;;;;;;;;;1449974;41;7008;-65
2021/06/29 02:23:26;;;;;;;;;;;;;;;;;;1450221;41;7221;-65
2021/06/29 02:24:28;;;;;;;;;;;;;;;;;;1450286;41;7205;-65
2021/06/29 02:25:31;;;;;;;;;;;;;;;;;;1450526;41;7118;-66
2021/06/29 02:26:33;;;;;;;;;;;;;;;;;;1450604;41;7220;-66
2021/06/29 02:27:36;;;;;;;;;;;;;;;;;;1450720;41;7193;-65
2021/06/29 02:28:38;;;;;;;;;;;;;;;;;;1450084;41;7040;-66
2021/06/29 02:29:41;;;;;;;;;;;;;;;;;;1450257;41;7008;-66
2021/06/29 02:30:44;;;;;;;;;;;;;;;;;;1450485;41;7032;-65
2021/06/29 02:31:46;;;;;;;;;;;;;;;;;;1450557;41;7032;-66
2021/06/29 02:32:49;;;;;;;;;;;;;;;;;;1450660;41;7020;-67
2021/06/29 02:33:51;;;;;;;;;;;;;;;;;;1450370;41;7013;-66
2021/06/29 02:34:54;;;;;;;;;;;;;;;;;;1450326;41;7000;-65
2021/06/29 02:35:56;;;;;;;;;;;;;;;;;;1450704;41;7004;-65
2021/06/29 02:36:59;;;;;;;;;;;;;;;;;;1446758;41;7115;-66
2021/06/29 02:38:01;;;;;;;;;;;;;;;;;;1445620;41;7125;-66
2021/06/29 02:39:04;;;;;;;;;;;;;;;;;;1449789;41;7000;-65
2021/06/29 02:40:11;;;;;;;;;;;;;;;;;;1449769;41;7004;-65
2021/06/29 02:41:14;;;;;;;;;;;;;;;;;;1450995;41;7044;-64
2021/06/29 02:42:18;;;;;;;;;;;;;;;;;;1450657;41;7008;-66
2021/06/29 02:43:21;;;;;;;;;;;;;;;;;;1451176;41;7052;-66
2021/06/29 02:44:23;;;;;;;;;;;;;;;;;;1451065;41;7031;-67
2021/06/29 02:45:26;;;;;;;;;;;;;;;;;;1450747;41;7063;-66
2021/06/29 02:46:29;;;;;;;;;;;;;;;;;;1450864;41;7040;-65
2021/06/29 02:47:32;;;;;;;;;;;;;;;;;;1450721;41;7008;-66
2021/06/29 02:48:34;;;;;;;;;;;;;;;;;;1450986;41;7914;-66
2021/06/29 02:49:37;;;;;;;;;;;;;;;;;;1451023;41;7987;-67
2021/06/29 02:50:40;;;;;;;;;;;;;;;;;;1450984;41;7032;-66
2021/06/29 02:51:42;;;;;;;;;;;;;;;;;;1450789;41;7000;-65
2021/06/29 02:52:45;;;;;;;;;;;;;;;;;;1450462;41;7000;-66
2021/06/29 02:53:48;;;;;;;;;;;;;;;;;;1450286;41;7028;-67
2021/06/29 02:54:51;;;;;;;;;;;;;;;;;;1450493;41;7109;-64
2021/06/29 02:55:53;;;;;;;;;;;;;;;;;;1450457;41;7000;-67
2021/06/29 02:56:56;;;;;;;;;;;;;;;;;;1450715;41;7001;-66
2021/06/29 02:57:59;;;;;;;;;;;;;;;;;;1450898;41;7008;-67
2021/06/29 02:59:01;;;;;;;;;;;;;;;;;;1450774;41;7035;-66
2021/06/29 03:00:05;;;;;;;;;;;;;;;;;;1450646;41;7126;-64
2021/06/29 03:01:07;;;;;;;;;;;;;;;;;;1450831;41;7047;-66
2021/06/29 03:02:09;;;;;;;;;;;;;;;;;;1450693;41;7009;-66
2021/06/29 03:03:12;;;;;;;;;;;;;;;;;;1450844;41;7106;-67
2021/06/29 03:04:14;;;;;;;;;;;;;;;;;;1450428;41;7008;-67
2021/06/29 03:05:17;;;;;;;;;;;;;;;;;;1450614;41;7028;-64
2021/06/29 03:06:19;;;;;;;;;;;;;;;;;;1450430;41;7049;-66
2021/06/29 03:07:22;;;;;;;;;;;;;;;;;;1450860;41;7017;-67
2021/06/29 03:08:24;;;;;;;;;;;;;;;;;;1450765;41;7164;-65
2021/06/29 03:09:27;;;;;;;;;;;;;;;;;;1450967;41;7008;-65
2021/06/29 03:10:29;;;;;;;;;;;;;;;;;;1450780;41;7032;-66
2021/06/29 03:11:32;;;;;;;;;;;;;;;;;;1450632;41;7195;-65
2021/06/29 03:12:34;;;;;;;;;;;;;;;;;;1450711;41;7008;-66
2021/06/29 03:13:37;;;;;;;;;;;;;;;;;;1450953;41;7025;-66
2021/06/29 03:14:41;;;;;;;;;;;;;;;;;;1451034;40;7111;-67
2021/06/29 03:15:43;;;;;;;;;;;;;;;;;;1450264;41;7108;-67
2021/06/29 03:16:46;;;;;;;;;;;;;;;;;;1451459;41;7013;-67
2021/06/29 03:17:50;;;;;;;;;;;;;;;;;;1450511;41;7055;-66
2021/06/29 03:19:07;;;;;;;;;;;;;;;;;;1450483;41;7008;-66
2021/06/29 03:20:12;;;;;;;;;;;;;;;;;;1450797;41;7009;-64
2021/06/29 03:21:14;;;;;;;;;;;;;;;;;;1450790;41;7200;-65
2021/06/29 03:22:16;;;;;;;;;;;;;;;;;;1449782;41;7008;-65
2021/06/29 03:23:19;;;;;;;;;;;;;;;;;;1450240;41;7008;-67
2021/06/29 03:24:21;;;;;;;;;;;;;;;;;;1450263;41;7041;-66
2021/06/29 03:25:24;;;;;;;;;;;;;;;;;;1450628;41;7184;-67
2021/06/29 03:26:26;;;;;;;;;;;;;;;;;;1449816;41;7193;-66
2021/06/29 03:27:28;;;;;;;;;;;;;;;;;;1450223;41;7956;-67
2021/06/29 03:28:31;;;;;;;;;;;;;;;;;;1450178;41;7004;-65
2021/06/29 03:29:36;;;;;;;;;;;;;;;;;;1450174;41;7048;-66
2021/06/29 03:30:38;;;;;;;;;;;;;;;;;;1450088;41;7000;-67
2021/06/29 03:31:41;;;;;;;;;;;;;;;;;;1450558;41;7287;-66
2021/06/29 03:32:43;;;;;;;;;;;;;;;;;;1446140;41;7598;-66
2021/06/29 03:33:46;;;;;;;;;;;;;;;;;;1449670;41;7004;-65
2021/06/29 03:34:48;;;;;;;;;;;;;;;;;;1449928;41;7833;-67
2021/06/29 03:35:51;;;;;;;;;;;;;;;;;;1450296;41;7008;-66
2021/06/29 03:36:53;;;;;;;;;;;;;;;;;;1451002;41;7048;-66
2021/06/29 03:37:57;;;;;;;;;;;;;;;;;;1450323;41;7021;-66
2021/06/29 03:39:00;;;;;;;;;;;;;;;;;;1449871;41;7044;-66
2021/06/29 03:40:03;;;;;;;;;;;;;;;;;;1450696;41;7004;-66
2021/06/29 03:41:05;;;;;;;;;;;;;;;;;;1450725;41;7112;-66
2021/06/29 03:42:08;;;;;;;;;;;;;;;;;;1451014;41;7052;-66
2021/06/29 03:43:10;;;;;;;;;;;;;;;;;;1450884;41;7052;-65
2021/06/29 03:44:13;;;;;;;;;;;;;;;;;;1450527;41;7036;-67
2021/06/29 03:45:15;;;;;;;;;;;;;;;;;;1449990;41;7039;-65
2021/06/29 03:46:17;;;;;;;;;;;;;;;;;;1450481;41;7005;-66
2021/06/29 03:47:20;;;;;;;;;;;;;;;;;;1450632;41;7036;-66
2021/06/29 03:48:22;;;;;;;;;;;;;;;;;;1450811;41;7028;-66
2021/06/29 03:49:25;;;;;;;;;;;;;;;;;;1450545;41;7060;-65
2021/06/29 03:50:28;;;;;;;;;;;;;;;;;;1450368;41;7189;-65
2021/06/29 03:51:30;;;;;;;;;;;;;;;;;;1450375;41;7009;-64
2021/06/29 03:52:33;;;;;;;;;;;;;;;;;;1450542;41;7016;-66
2021/06/29 03:53:35;;;;;;;;;;;;;;;;;;1450649;41;7917;-65
2021/06/29 03:54:37;;;;;;;;;;;;;;;;;;1450895;41;7017;-66
2021/06/29 03:55:40;;;;;;;;;;;;;;;;;;1450649;41;7045;-64
2021/06/29 03:56:42;;;;;;;;;;;;;;;;;;1450563;41;6997;-67
2021/06/29 03:57:44;;;;;;;;;;;;;;;;;;1450482;41;7008;-66
2021/06/29 03:58:47;;;;;;;;;;;;;;;;;;1450306;41;7021;-66
2021/06/29 03:59:49;;;;;;;;;;;;;;;;;;1450789;41;7004;-64
2021/06/29 04:00:56;;;;;;;;;;;;;;;;;;1450177;41;7008;-65
2021/06/29 04:01:59;;;;;;;;;;;;;;;;;;1450617;41;7902;-66
2021/06/29 04:03:01;;;;;;;;;;;;;;;;;;1450605;41;7035;-64
2021/06/29 04:04:04;;;;;;;;;;;;;;;;;;1450161;41;7060;-66
2021/06/29 04:05:07;;;;;;;;;;;;;;;;;;1449077;41;8064;-64
2021/06/29 04:06:10;;;;;;;;;;;;;;;;;;1449260;40;7208;-66
2021/06/29 04:07:12;;;;;;;;;;;;;;;;;;1450071;41;7188;-65
2021/06/29 04:08:15;;;;;;;;;;;;;;;;;;1450400;41;7016;-65
2021/06/29 04:09:17;;;;;;;;;;;;;;;;;;1450944;41;7017;-65
2021/06/29 04:10:19;;;;;;;;;;;;;;;;;;1450744;41;7091;-65
2021/06/29 04:11:23;;;;;;;;;;;;;;;;;;1450699;41;7960;-65
2021/06/29 04:12:28;;;;;;;;;;;;;;;;;;1450477;41;7000;-67
2021/06/29 04:13:31;;;;;;;;;;;;;;;;;;1450568;41;7121;-65
2021/06/29 04:14:34;;;;;;;;;;;;;;;;;;1450365;41;7000;-65
2021/06/29 04:15:36;;;;;;;;;;;;;;;;;;1450288;41;7035;-65
2021/06/29 04:16:39;;;;;;;;;;;;;;;;;;1450630;41;7008;-65
2021/06/29 04:17:41;;;;;;;;;;;;;;;;;;1450621;41;7948;-65
2021/06/29 04:18:44;;;;;;;;;;;;;;;;;;1450625;41;7036;-65
2021/06/29 04:19:46;;;;;;;;;;;;;;;;;;1450176;41;7004;-64
2021/06/29 04:20:49;;;;;;;;;;;;;;;;;;1449909;41;7041;-65
2021/06/29 04:21:51;;;;;;;;;;;;;;;;;;1450449;41;7028;-67
2021/06/29 04:22:54;;;;;;;;;;;;;;;;;;1449710;41;7933;-65
2021/06/29 04:23:56;;;;;;;;;;;;;;;;;;1449960;41;7032;-67
2021/06/29 04:24:58;;;;;;;;;;;;;;;;;;1450442;41;7040;-65
2021/06/29 04:26:01;;;;;;;;;;;;;;;;;;1450873;41;7056;-65
2021/06/29 04:27:04;;;;;;;;;;;;;;;;;;1445864;41;7012;-66
2021/06/29 04:28:06;;;;;;;;;;;;;;;;;;1445789;41;7213;-66
2021/06/29 04:29:09;;;;;;;;;;;;;;;;;;1450182;41;7040;-66
2021/06/29 04:30:15;;;;;;;;;;;;;;;;;;1450482;41;7017;-67
2021/06/29 04:31:18;;;;;;;;;;;;;;;;;;1450463;41;7000;-66
2021/06/29 04:32:20;;;;;;;;;;;;;;;;;;1450762;41;7044;-65
2021/06/29 04:33:24;;;;;;;;;;;;;;;;;;1450644;41;7001;-66
2021/06/29 04:34:26;;;;;;;;;;;;;;;;;;1450682;41;7941;-65
2021/06/29 04:35:29;;;;;;;;;;;;;;;;;;1451042;41;7229;-67
2021/06/29 04:36:32;;;;;;;;;;;;;;;;;;1451265;41;6996;-65
2021/06/29 04:37:34;;;;;;;;;;;;;;;;;;1450743;41;7040;-64
2021/06/29 04:38:37;;;;;;;;;;;;;;;;;;1449358;41;7237;-67
2021/06/29 04:39:40;;;;;;;;;;;;;;;;;;1450268;41;7924;-65
2021/06/29 04:40:42;;;;;;;;;;;;;;;;;;1451063;41;7921;-66
2021/06/29 04:41:45;;;;;;;;;;;;;;;;;;1451161;41;7020;-66
2021/06/29 04:42:47;;;;;;;;;;;;;;;;;;1451335;41;7028;-65
2021/06/29 04:43:49;;;;;;;;;;;;;;;;;;1451072;41;7916;-65
2021/06/29 04:44:52;;;;;;;;;;;;;;;;;;1451141;41;7024;-65
2021/06/29 04:45:54;;;;;;;;;;;;;;;;;;1451193;41;7004;-65
2021/06/29 04:46:57;;;;;;;;;;;;;;;;;;1450788;41;7052;-66
2021/06/29 04:48:00;;;;;;;;;;;;;;;;;;1450811;41;7009;-66
2021/06/29 04:49:02;;;;;;;;;;;;;;;;;;1451074;41;7008;-67
2021/06/29 04:50:05;;;;;;;;;;;;;;;;;;1450894;41;7040;-67
2021/06/29 04:51:08;;;;;;;;;;;;;;;;;;1451299;41;7028;-66
2021/06/29 04:52:11;;;;;;;;;;;;;;;;;;1450497;41;7076;-67
2021/06/29 04:53:13;;;;;;;;;;;;;;;;;;1451423;41;7106;-66
2021/06/29 04:54:16;;;;;;;;;;;;;;;;;;1450016;41;6996;-66
2021/06/29 04:55:19;;;;;;;;;;;;;;;;;;1450815;41;7032;-65
2021/06/29 04:56:21;;;;;;;;;;;;;;;;;;1451064;40;7128;-66
2021/06/29 04:57:23;;;;;;;;;;;;;;;;;;1451035;41;7008;-67
2021/06/29 04:58:30;;;;;;;;;;;;;;;;;;1451071;41;7009;-67
2021/06/29 04:59:33;;;;;;;;;;;;;;;;;;1451084;41;7028;-65
2021/06/29 05:00:38;;;;;;;;;;;;;;;;;;1451151;41;7040;-66
2021/06/29 05:01:40;;;;;;;;;;;;;;;;;;1451335;41;7028;-67
2021/06/29 05:02:43;;;;;;;;;;;;;;;;;;1451245;41;7008;-67
2021/06/29 05:03:46;;;;;;;;;;;;;;;;;;1451195;41;7008;-67
2021/06/29 05:04:49;;;;;;;;;;;;;;;;;;1451245;41;7032;-66
2021/06/29 05:05:51;;;;;;;;;;;;;;;;;;1450782;41;7497;-65
2021/06/29 05:06:53;;;;;;;;;;;;;;;;;;1450901;41;7187;-67
2021/06/29 05:07:56;;;;;;;;;;;;;;;;;;1451032;41;7004;-66
2021/06/29 05:08:58;;;;;;;;;;;;;;;;;;1451026;41;7040;-66
2021/06/29 05:10:01;;;;;;;;;;;;;;;;;;1451060;41;7024;-64
2021/06/29 05:11:04;;;;;;;;;;;;;;;;;;1450581;41;7063;-67
2021/06/29 05:12:06;;;;;;;;;;;;;;;;;;1450952;41;7189;-66
2021/06/29 05:13:09;;;;;;;;;;;;;;;;;;1451086;41;7237;-65
2021/06/29 05:14:11;;;;;;;;;;;;;;;;;;1450860;41;7008;-66
2021/06/29 05:15:14;;;;;;;;;;;;;;;;;;1451173;41;7109;-66
2021/06/29 05:16:16;;;;;;;;;;;;;;;;;;1451407;41;8258;-67
2021/06/29 05:17:19;;;;;;;;;;;;;;;;;;1450724;41;7950;-66
2021/06/29 05:18:21;;;;;;;;;;;;;;;;;;1450913;41;7004;-65
2021/06/29 05:19:24;;;;;;;;;;;;;;;;;;1450822;41;7013;-65
2021/06/29 05:20:26;;;;;;;;;;;;;;;;;;1450136;41;7008;-66
2021/06/29 05:21:28;;;;;;;;;;;;;;;;;;1450355;41;7032;-67
2021/06/29 05:22:31;;;;;;;;;;;;;;;;;;1446608;41;7025;-65
2021/06/29 05:23:33;;;;;;;;;;;;;;;;;;1446732;41;7007;-66
2021/06/29 05:24:36;;;;;;;;;;;;;;;;;;1446894;41;7055;-66
2021/06/29 05:25:38;;;;;;;;;;;;;;;;;;1448639;41;7017;-65
2021/06/29 05:26:41;;;;;;;;;;;;;;;;;;1448781;41;7012;-67
2021/06/29 05:27:43;;;;;;;;;;;;;;;;;;1446653;41;7276;-66
2021/06/29 05:28:45;;;;;;;;;;;;;;;;;;1446735;41;7028;-67
2021/06/29 05:29:48;;;;;;;;;;;;;;;;;;1448362;41;7008;-64
2021/06/29 05:30:50;;;;;;;;;;;;;;;;;;1450939;41;7017;-65
2021/06/29 05:31:53;;;;;;;;;;;;;;;;;;1450088;41;7064;-67
2021/06/29 05:32:56;;;;;;;;;;;;;;;;;;1450651;41;7012;-66
2021/06/29 05:33:58;;;;;;;;;;;;;;;;;;1450349;41;7009;-67
2021/06/29 05:35:02;;;;;;;;;;;;;;;;;;1450293;41;7009;-65
2021/06/29 05:36:05;;;;;;;;;;;;;;;;;;1446948;41;7000;-67
2021/06/29 05:37:07;;;;;;;;;;;;;;;;;;1447092;41;7012;-66
2021/06/29 05:38:10;;;;;;;;;;;;;;;;;;1446413;41;7039;-65
2021/06/29 05:39:17;;;;;;;;;;;;;;;;;;1446601;41;7220;-66
2021/06/29 05:40:19;;;;;;;;;;;;;;;;;;1446649;41;7024;-67
2021/06/29 05:41:22;;;;;;;;;;;;;;;;;;1446965;41;7206;-65
2021/06/29 05:42:25;;;;;;;;;;;;;;;;;;1447117;41;7008;-66
2021/06/29 05:43:27;;;;;;;;;;;;;;;;;;1450453;41;7189;-66
2021/06/29 05:44:30;;;;;;;;;;;;;;;;;;1449856;41;7004;-66
2021/06/29 05:45:32;;;;;;;;;;;;;;;;;;1447833;41;7004;-67
2021/06/29 05:46:35;;;;;;;;;;;;;;;;;;1450744;41;7000;-66
2021/06/29 05:47:38;;;;;;;;;;;;;;;;;;1451137;41;7000;-66
2021/06/29 05:48:40;;;;;;;;;;;;;;;;;;1451129;41;7960;-67
2021/06/29 05:49:43;;;;;;;;;;;;;;;;;;1451019;41;7008;-65
2021/06/29 05:50:46;;;;;;;;;;;;;;;;;;1450861;41;7212;-65
2021/06/29 05:51:48;;;;;;;;;;;;;;;;;;1451196;41;7116;-64
2021/06/29 05:52:50;;;;;;;;;;;;;;;;;;1450823;41;7004;-66
2021/06/29 05:53:53;;;;;;;;;;;;;;;;;;1451112;41;7937;-65
2021/06/29 05:54:56;;;;;;;;;;;;;;;;;;1447092;41;7892;-65
2021/06/29 05:55:58;;;;;;;;;;;;;;;;;;1447007;41;6997;-65
2021/06/29 05:57:01;;;;;;;;;;;;;;;;;;1447444;41;7035;-65
2021/06/29 05:58:03;;;;;;;;;;;;;;;;;;1447357;41;7130;-64
2021/06/29 05:59:06;;;;;;;;;;;;;;;;;;1447363;41;7040;-66
2021/06/29 06:00:16;;;;;;;;;;;;;;;;;;1448290;40;7008;-65
2021/06/29 06:01:19;;;;;;;;;;;;;;;;;;1449041;40;7036;-65
2021/06/29 06:02:41;;;;;;;;;;;;;;;;;;1449032;41;8004;-67
2021/06/29 06:03:44;;;;;;;;;;;;;;;;;;1449631;40;7036;-65
2021/06/29 06:04:46;;;;;;;;;;;;;;;;;;1449843;40;7073;-65
2021/06/29 06:05:48;;;;;;;;;;;;;;;;;;1449257;40;7000;-66
2021/06/29 06:06:51;;;;;;;;;;;;;;;;;;1449933;40;7000;-65
2021/06/29 06:07:54;;;;;;;;;;;;;;;;;;1449352;40;7961;-64
2021/06/29 06:08:57;;;;;;;;;;;;;;;;;;1449432;40;7081;-65
2021/06/29 06:09:59;;;;;;;;;;;;;;;;;;1449104;40;7013;-65
2021/06/29 06:11:02;;;;;;;;;;;;;;;;;;1449675;40;7197;-65
2021/06/29 06:12:05;;;;;;;;;;;;;;;;;;1450301;40;7072;-66
2021/06/29 06:13:07;;;;;;;;;;;;;;;;;;1449241;40;7017;-66
2021/06/29 06:14:10;;;;;;;;;;;;;;;;;;1448871;41;7004;-67
2021/06/29 06:15:12;;;;;;;;;;;;;;;;;;1448779;40;7009;-65
2021/06/29 06:16:15;;;;;;;;;;;;;;;;;;1448612;40;7048;-66
2021/06/29 06:17:17;;;;;;;;;;;;;;;;;;1449793;40;7046;-67
2021/06/29 06:18:20;;;;;;;;;;;;;;;;;;1449352;40;7993;-66
2021/06/29 06:19:23;;;;;;;;;;;;;;;;;;1450181;40;7013;-66
2021/06/29 06:20:25;;;;;;;;;;;;;;;;;;1449093;41;7067;-66
2021/06/29 06:21:28;;;;;;;;;;;;;;;;;;1448467;40;8016;-67
2021/06/29 06:22:30;;;;;;;;;;;;;;;;;;1447856;41;7000;-67
2021/06/29 06:23:33;;;;;;;;;;;;;;;;;;1449751;40;7010;-66
2021/06/29 06:24:35;;;;;;;;;;;;;;;;;;1448583;40;7055;-66
2021/06/29 06:25:38;;;;;;;;;;;;;;;;;;1448290;40;7012;-65
2021/06/29 06:26:41;;;;;;;;;;;;;;;;;;1449656;40;7017;-67
2021/06/29 06:27:43;;;;;;;;;;;;;;;;;;1448332;41;7027;-65
2021/06/29 06:28:45;;;;;;;;;;;;;;;;;;1449834;40;7031;-66
2021/06/29 06:29:48;;;;;;;;;;;;;;;;;;1449186;40;7005;-66
2021/06/29 06:30:50;;;;;;;;;;;;;;;;;;1449659;40;7028;-64
2021/06/29 06:31:53;;;;;;;;;;;;;;;;;;1448833;40;7921;-66
2021/06/29 06:32:56;;;;;;;;;;;;;;;;;;1448872;41;7004;-66
2021/06/29 06:33:59;;;;;;;;;;;;;;;;;;1448454;40;7933;-64
2021/06/29 06:35:01;;;;;;;;;;;;;;;;;;1449532;40;7224;-66
2021/06/29 06:36:04;;;;;;;;;;;;;;;;;;1448948;40;7045;-65
2021/06/29 06:37:06;;;;;;;;;;;;;;;;;;1450098;40;7110;-66
2021/06/29 06:38:09;;;;;;;;;;;;;;;;;;1447607;40;7032;-66
2021/06/29 06:39:11;;;;;;;;;;;;;;;;;;1448261;40;7048;-67
2021/06/29 06:40:14;;;;;;;;;;;;;;;;;;1447856;40;7049;-67
2021/06/29 06:41:16;;;;;;;;;;;;;;;;;;1449171;40;7004;-65
2021/06/29 06:42:19;;;;;;;;;;;;;;;;;;1449127;40;7053;-67
2021/06/29 06:43:26;;;;;;;;;;;;;;;;;;1450078;40;7028;-65
2021/06/29 06:44:29;;;;;;;;;;;;;;;;;;1449277;41;7008;-64
2021/06/29 06:45:31;;;;;;;;;;;;;;;;;;1449478;40;7082;-67
2021/06/29 06:46:34;;;;;;;;;;;;;;;;;;1448196;40;7265;-64
2021/06/29 06:47:37;;;;;;;;;;;;;;;;;;1449815;40;7185;-67
2021/06/29 06:48:42;;;;;;;;;;;;;;;;;;1448108;41;7012;-66
2021/06/29 06:49:46;;;;;;;;;;;;;;;;;;1446760;41;7017;-66
2021/06/29 06:50:48;;;;;;;;;;;;;;;;;;1447081;41;7228;-66
2021/06/29 06:51:51;;;;;;;;;;;;;;;;;;1450691;41;7194;-67
2021/06/29 06:52:53;;;;;;;;;;;;;;;;;;1450146;41;7028;-64
2021/06/29 06:53:55;;;;;;;;;;;;;;;;;;1446772;41;7016;-68
2021/06/29 06:54:58;;;;;;;;;;;;;;;;;;1446804;41;7008;-67
2021/06/29 06:56:00;;;;;;;;;;;;;;;;;;1447592;41;7031;-66
2021/06/29 06:57:03;;;;;;;;;;;;;;;;;;1448669;41;7036;-68
2021/06/29 06:58:05;;;;;;;;;;;;;;;;;;1447667;41;7012;-66
2021/06/29 06:59:08;;;;;;;;;;;;;;;;;;1451024;41;7223;-66
2021/06/29 07:00:11;;;;;;;;;;;;;;;;;;1451208;41;7028;-67
2021/06/29 07:01:14;;;;;;;;;;;;;;;;;;1450702;41;7909;-65
2021/06/29 07:02:18;;;;;;;;;;;;;;;;;;1450683;41;6984;-67
2021/06/29 07:03:21;;;;;;;;;;;;;;;;;;1450411;41;7036;-67
2021/06/29 07:04:23;;;;;;;;;;;;;;;;;;1450997;41;7012;-65
2021/06/29 07:05:26;;;;;;;;;;;;;;;;;;1447407;41;7036;-66
2021/06/29 07:06:28;;;;;;;;;;;;;;;;;;1449692;41;7004;-65
2021/06/29 07:07:31;;;;;;;;;;;;;;;;;;1450162;41;7143;-65
2021/06/29 07:08:33;;;;;;;;;;;;;;;;;;1450774;41;7053;-65
2021/06/29 07:09:37;;;;;;;;;;;;;;;;;;1450603;41;7009;-66
2021/06/29 07:10:39;;;;;;;;;;;;;;;;;;1450729;41;7032;-64
2021/06/29 07:11:45;;;;;;;;;;;;;;;;;;1449779;41;7008;-66
2021/06/29 07:12:47;;;;;;;;;;;;;;;;;;1446996;41;7206;-66
2021/06/29 07:13:50;;;;;;;;;;;;;;;;;;1448462;41;7217;-66
2021/06/29 07:14:52;;;;;;;;;;;;;;;;;;1447294;41;7004;-66
2021/06/29 07:15:55;;;;;;;;;;;;;;;;;;1446543;41;7032;-66
2021/06/29 07:16:57;;;;;;;;;;;;;;;;;;1447173;41;7123;-66
2021/06/29 07:18:01;;;;;;;;;;;;;;;;;;1446964;41;7007;-65
2021/06/29 07:19:04;;;;;;;;;;;;;;;;;;1447046;41;7013;-67
2021/06/29 07:20:07;;;;;;;;;;;;;;;;;;1450409;41;7056;-65
2021/06/29 07:21:10;;;;;;;;;;;;;;;;;;1449919;41;7008;-68
2021/06/29 07:22:12;;;;;;;;;;;;;;;;;;1450168;41;7892;-67